Time;durP1;ratioP1;P1;durP2;ratioP2;P2;SDS_P1;SDS_P2;PMS_P1;PMS_P2;Temp;Humidity;BMP_temperature;BMP_pressure;BME280_temperature;BME280_humidity;BME280_pressure;Samples;Min_cycle;Max_cycle;Signal;HPM_P1;HPM_P2
2023/02/10 00:00:34;;;;;;;;;;;;;;;-144.99;100.00;52480.72;5019330;28;19979;-72
2023/02/10 00:03:01;;;;;;;;;;;;;;;-144.99;100.00;52458.28;5017261;28;19929;-72
2023/02/10 00:05:27;;;;;;;;;;;;;;;-144.99;100.00;52458.28;5008885;28;20157;-73
2023/02/10 00:07:54;;;;;;;;;;;;;;;-144.99;100.00;52444.03;5004573;28;19934;-72
2023/02/10 00:10:20;;;;;;;;;;;;;;;-144.99;100.00;52427.72;5020299;28;19932;-73
2023/02/10 00:12:47;;;;;;;;;;;;;;;-144.99;100.00;52456.25;5023184;28;19972;-71
2023/02/10 00:15:15;;;;;;;;;;;;;;;-144.99;100.00;52446.06;5008328;28;20410;-71
2023/02/10 00:17:41;;;;;;;;;;;;;;;-144.99;100.00;52460.31;5012889;28;20399;-71
2023/02/10 00:20:08;;;;;;;;;;;;;;;-144.99;100.00;52476.63;5022487;28;19979;-74
2023/02/10 00:22:35;;;;;;;;;;;;;;;-144.99;100.00;52468.47;5044445;28;19914;-75
2023/02/10 00:25:01;;;;;;;;;;;;;;;-144.99;100.00;52452.16;5030865;28;20394;-75
2023/02/10 00:27:28;;;;;;;;;;;;;;;-144.99;100.00;52423.63;5029737;28;19930;-74
2023/02/10 00:29:54;;;;;;;;;;;;;;;-144.99;100.00;52448.09;5028643;28;19932;-77
2023/02/10 00:32:22;;;;;;;;;;;;;;;-144.99;100.00;52460.31;5031695;28;20318;-76
2023/02/10 00:34:49;;;;;;;;;;;;;;;-144.99;100.00;52472.56;5022460;28;19926;-76
2023/02/10 00:37:15;;;;;;;;;;;;;;;-144.99;100.00;52435.88;5009441;28;20015;-73
2023/02/10 00:39:42;;;;;;;;;;;;;;;-144.99;100.00;52450.13;5019304;28;19926;-72
2023/02/10 00:42:08;;;;;;;;;;;;;;;-144.99;100.00;52462.34;5014926;28;19926;-74
2023/02/10 00:44:35;;;;;;;;;;;;;;;-144.99;100.00;52478.66;5021204;28;20468;-73
2023/02/10 00:47:01;;;;;;;;;;;;;;;-144.99;100.00;52423.63;5010856;28;19926;-74
2023/02/10 00:49:29;;;;;;;;;;;;;;;-144.99;100.00;52468.47;5041368;28;19948;-74
2023/02/10 00:51:57;;;;;;;;;;;;;;;-144.99;100.00;52456.25;5030769;28;19933;-73
2023/02/10 00:54:23;;;;;;;;;;;;;;;-144.99;100.00;52417.53;5041264;28;19933;-79
2023/02/10 00:56:50;;;;;;;;;;;;;;;-144.99;100.00;52435.88;5033765;28;19933;-78
2023/02/10 00:59:17;;;;;;;;;;;;;;;-144.99;100.00;52444.03;5000242;28;19926;-78
2023/02/10 01:01:43;;;;;;;;;;;;;;;-144.99;100.00;52480.72;5018786;28;19937;-78
2023/02/10 01:04:10;;;;;;;;;;;;;;;-144.99;100.00;52435.88;5011688;28;19990;-73
2023/02/10 01:06:38;;;;;;;;;;;;;;;-144.99;100.00;52425.66;5012375;28;20027;-76
2023/02/10 01:09:04;;;;;;;;;;;;;;;-144.99;100.00;52423.63;5019407;28;20355;-76
2023/02/10 01:11:31;;;;;;;;;;;;;;;-144.99;100.00;52454.22;5013256;28;19952;-76
2023/02/10 01:13:58;;;;;;;;;;;;;;;-144.99;100.00;52437.91;5021029;28;20013;-75
2023/02/10 01:16:24;;;;;;;;;;;;;;;-144.99;100.00;52431.78;5011255;28;19929;-75
2023/02/10 01:18:51;;;;;;;;;;;;;;;-144.99;100.00;52456.25;5013816;28;19940;-75
2023/02/10 01:21:20;;;;;;;;;;;;;;;-144.99;100.00;52417.53;5017038;28;19926;-76
2023/02/10 01:23:48;;;;;;;;;;;;;;;-144.99;100.00;52431.78;5019235;28;19947;-76
2023/02/10 01:26:15;;;;;;;;;;;;;;;-144.99;100.00;52431.78;5015957;28;19944;-76
2023/02/10 01:28:42;;;;;;;;;;;;;;;-144.99;100.00;52452.16;5012797;28;19990;-68
2023/02/10 01:31:09;;;;;;;;;;;;;;;-144.99;100.00;52454.22;5013591;28;19983;-69
2023/02/10 01:33:35;;;;;;;;;;;;;;;-144.99;100.00;52448.09;5021615;28;19968;-68
2023/02/10 01:36:03;;;;;;;;;;;;;;;-144.99;100.00;52456.25;5022511;28;20568;-69
2023/02/10 01:38:30;;;;;;;;;;;;;;;-144.99;100.00;52456.25;5031003;28;19941;-68
2023/02/10 01:40:58;;;;;;;;;;;;;;;-144.99;100.00;52431.78;5020598;28;19979;-69
2023/02/10 01:43:24;;;;;;;;;;;;;;;-144.99;100.00;52448.09;5020913;28;19953;-68
2023/02/10 01:45:51;;;;;;;;;;;;;;;-144.99;100.00;52441.97;5022348;28;20379;-68
2023/02/10 01:48:18;;;;;;;;;;;;;;;-144.99;100.00;52472.56;5006700;28;19971;-68
2023/02/10 01:50:48;;;;;;;;;;;;;;;-144.99;100.00;52425.66;5015780;28;19959;-68
2023/02/10 01:53:15;;;;;;;;;;;;;;;-144.99;100.00;52425.66;5020407;28;20495;-67
2023/02/10 01:55:45;;;;;;;;;;;;;;;-144.99;100.00;52468.47;5017893;28;19996;-69
2023/02/10 01:58:15;;;;;;;;;;;;;;;-144.99;99.97;52419.56;5010817;28;19936;-75
2023/02/10 02:00:41;;;;;;;;;;;;;;;-144.99;99.48;52407.31;5014404;28;19925;-75
2023/02/10 02:03:09;;;;;;;;;;;;;;;-144.99;100.00;52452.16;5018064;28;19936;-75
2023/02/10 02:05:36;;;;;;;;;;;;;;;-144.99;100.00;52415.47;5027765;28;20401;-74
2023/02/10 02:08:05;;;;;;;;;;;;;;;-144.99;100.00;52450.13;5013055;28;20124;-75
2023/02/10 02:10:48;;;;;;;;;;;;;;;-144.99;100.00;52437.91;5021784;28;19951;-77
2023/02/10 02:13:21;;;;;;;;;;;;;;;-144.99;100.00;52486.81;5008513;28;19929;-77
2023/02/10 02:15:51;;;;;;;;;;;;;;;-144.99;100.00;52478.66;5019349;28;19989;-77
2023/02/10 02:18:24;;;;;;;;;;;;;;;-144.99;100.00;52444.03;5029367;28;19946;-78
2023/02/10 02:21:12;;;;;;;;;;;;;;;-144.99;100.00;52423.63;5015132;28;19926;-78
2023/02/10 02:24:05;;;;;;;;;;;;;;;-144.99;100.00;52419.56;5021262;28;19929;-77
2023/02/10 02:26:37;;;;;;;;;;;;;;;-144.99;100.00;52444.03;4966750;28;19935;-68
2023/02/10 02:29:17;;;;;;;;;;;;;;;-144.99;100.00;52427.72;5009574;28;19987;-67
2023/02/10 02:31:59;;;;;;;;;;;;;;;-144.99;100.00;52427.72;5007153;28;19947;-67
2023/02/10 02:34:30;;;;;;;;;;;;;;;-144.99;100.00;52452.16;5018207;28;19940;-67
2023/02/10 02:36:59;;;;;;;;;;;;;;;-144.99;100.00;52439.94;5011263;28;19943;-67
2023/02/10 02:39:27;;;;;;;;;;;;;;;-144.99;100.00;52429.75;5015142;28;19940;-67
2023/02/10 02:42:06;;;;;;;;;;;;;;;-144.99;100.00;52456.25;5004383;28;20499;-67
2023/02/10 02:44:32;;;;;;;;;;;;;;;-144.99;100.00;52423.63;5007077;28;19957;-68
2023/02/10 02:47:07;;;;;;;;;;;;;;;-144.99;100.00;52452.16;5012419;28;19976;-70
2023/02/10 02:49:39;;;;;;;;;;;;;;;-144.99;100.00;52435.88;5008716;28;19929;-70
2023/02/10 02:52:09;;;;;;;;;;;;;;;-144.99;100.00;52456.25;5021582;28;19971;-70
2023/02/10 02:54:42;;;;;;;;;;;;;;;-144.99;100.00;52433.81;5039302;28;19938;-76
2023/02/10 02:57:12;;;;;;;;;;;;;;;-144.99;100.00;52427.72;5032569;28;19955;-74
2023/02/10 02:59:41;;;;;;;;;;;;;;;-144.99;100.00;52466.44;5035348;28;19953;-74
2023/02/10 03:02:11;;;;;;;;;;;;;;;-144.99;100.00;52431.78;5042033;28;19986;-73
2023/02/10 03:04:37;;;;;;;;;;;;;;;-144.99;100.00;52452.16;5041181;28;19951;-73
2023/02/10 03:07:04;;;;;;;;;;;;;;;-144.99;100.00;52437.91;5032590;28;19986;-74
2023/02/10 03:09:31;;;;;;;;;;;;;;;-144.99;100.00;52448.09;5031456;28;19971;-69
2023/02/10 03:11:57;;;;;;;;;;;;;;;-144.99;100.00;52456.25;5035168;28;20079;-71
2023/02/10 03:14:24;;;;;;;;;;;;;;;-144.99;100.00;52468.47;5041358;28;19967;-71
2023/02/10 03:16:50;;;;;;;;;;;;;;;-144.99;100.00;52456.25;5034252;28;19952;-71
2023/02/10 03:19:18;;;;;;;;;;;;;;;-144.99;100.00;52444.03;5028525;28;19948;-70
2023/02/10 03:21:46;;;;;;;;;;;;;;;-144.99;100.00;52488.84;5037730;28;20074;-71
2023/02/10 03:24:13;;;;;;;;;;;;;;;-144.99;100.00;52484.78;5030234;28;19940;-71
2023/02/10 03:26:40;;;;;;;;;;;;;;;-144.99;100.00;52456.25;5031708;28;19987;-71
2023/02/10 03:29:06;;;;;;;;;;;;;;;-144.99;100.00;52419.56;5030585;28;20090;-69
2023/02/10 03:31:33;;;;;;;;;;;;;;;-144.99;100.00;52431.78;5026857;28;20248;-75
2023/02/10 03:34:00;;;;;;;;;;;;;;;-144.99;100.00;52441.97;5042128;28;19945;-75
2023/02/10 03:36:28;;;;;;;;;;;;;;;-144.99;100.00;52431.78;5019810;28;19941;-75
2023/02/10 03:38:54;;;;;;;;;;;;;;;-144.99;100.00;52462.34;5031238;28;19940;-75
2023/02/10 03:41:21;;;;;;;;;;;;;;;-144.99;100.00;52452.16;5034483;28;20064;-78
2023/02/10 03:43:47;;;;;;;;;;;;;;;-144.99;100.00;52435.88;5033122;28;19984;-77
2023/02/10 03:46:14;;;;;;;;;;;;;;;-144.99;100.00;52486.81;5045501;28;19976;-78
2023/02/10 03:48:41;;;;;;;;;;;;;;;-144.99;100.00;52439.94;5029864;28;19946;-79
2023/02/10 03:51:08;;;;;;;;;;;;;;;-144.99;100.00;52488.84;5032196;28;19956;-79
2023/02/10 03:53:36;;;;;;;;;;;;;;;-144.99;100.00;52441.97;5038394;28;19942;-79
2023/02/10 03:56:03;;;;;;;;;;;;;;;-144.99;100.00;52401.22;5038413;28;19973;-79
2023/02/10 03:58:29;;;;;;;;;;;;;;;-144.99;100.00;52476.63;5040253;28;19997;-78
2023/02/10 04:00:56;;;;;;;;;;;;;;;-144.99;100.00;52456.25;5029361;28;20346;-71
2023/02/10 04:03:22;;;;;;;;;;;;;;;-144.99;100.00;52484.78;5032314;28;19948;-71
2023/02/10 04:05:49;;;;;;;;;;;;;;;-144.99;100.00;52456.25;5046699;22;19929;-72
2023/02/10 04:08:16;;;;;;;;;;;;;;;-144.99;100.00;52476.63;5022352;28;19953;-74
2023/02/10 04:10:44;;;;;;;;;;;;;;;-144.99;100.00;52476.63;5024058;28;20423;-72
2023/02/10 04:13:10;;;;;;;;;;;;;;;-144.99;100.00;52439.94;5039881;28;19943;-72
2023/02/10 04:15:37;;;;;;;;;;;;;;;-144.99;100.00;52480.72;5039326;28;19935;-72
2023/02/10 04:18:04;;;;;;;;;;;;;;;-144.99;100.00;52492.94;5041058;28;19950;-70
2023/02/10 04:20:31;;;;;;;;;;;;;;;-144.99;100.00;52462.34;5030472;28;20475;-70
2023/02/10 04:22:57;;;;;;;;;;;;;;;-144.99;100.00;52497.00;5030277;28;19989;-70
2023/02/10 04:25:24;;;;;;;;;;;;;;;-144.99;100.00;52454.22;5039875;28;19925;-70
2023/02/10 04:27:52;;;;;;;;;;;;;;;-144.99;100.00;52452.16;5038463;28;19979;-69
2023/02/10 04:30:18;;;;;;;;;;;;;;;-144.99;100.00;52444.03;5031721;28;20015;-71
2023/02/10 04:32:45;;;;;;;;;;;;;;;-144.99;100.00;52446.06;5036834;28;19996;-71
2023/02/10 04:35:11;;;;;;;;;;;;;;;-144.99;100.00;52464.41;5039692;28;19994;-71
2023/02/10 04:37:38;;;;;;;;;;;;;;;-144.99;100.00;52480.72;5039047;28;19939;-70
2023/02/10 04:40:05;;;;;;;;;;;;;;;-144.99;100.00;52435.88;5032950;28;20402;-71
2023/02/10 04:42:31;;;;;;;;;;;;;;;-144.99;100.00;52448.09;5020904;28;20048;-72
2023/02/10 04:44:59;;;;;;;;;;;;;;;-144.99;100.00;52454.22;5031343;28;20003;-74
2023/02/10 04:47:26;;;;;;;;;;;;;;;-144.99;100.00;52391.03;5028389;28;20365;-73
2023/02/10 04:49:53;;;;;;;;;;;;;;;-144.99;100.00;52444.03;5037607;28;19990;-73
2023/02/10 04:52:22;;;;;;;;;;;;;;;-144.99;100.00;52490.91;5025292;28;19987;-73
2023/02/10 04:54:49;;;;;;;;;;;;;;;-144.99;100.00;52427.72;5030143;28;20294;-73
2023/02/10 04:57:15;;;;;;;;;;;;;;;-144.99;100.00;52452.16;5039749;28;19929;-66
2023/02/10 04:59:42;;;;;;;;;;;;;;;-144.99;100.00;52460.31;5039329;28;20001;-66
2023/02/10 05:02:10;;;;;;;;;;;;;;;-144.99;100.00;52464.41;5024686;28;20002;-67
2023/02/10 05:04:36;;;;;;;;;;;;;;;-144.99;100.00;52456.25;5029299;28;19982;-67
2023/02/10 05:07:03;;;;;;;;;;;;;;;-144.99;100.00;52446.06;5034414;28;19975;-65
2023/02/10 05:09:29;;;;;;;;;;;;;;;-144.99;100.00;52458.28;5038117;28;19940;-64
2023/02/10 05:11:56;;;;;;;;;;;;;;;-144.99;100.00;52464.41;5025528;28;20022;-65
2023/02/10 05:14:22;;;;;;;;;;;;;;;-144.99;100.00;52476.63;5027285;28;19977;-69
2023/02/10 05:16:49;;;;;;;;;;;;;;;-144.99;100.00;52468.47;5036012;28;19947;-70
2023/02/10 05:19:17;;;;;;;;;;;;;;;-144.99;100.00;52490.91;5039704;28;20018;-70
2023/02/10 05:21:43;;;;;;;;;;;;;;;-144.99;100.00;52448.09;5025757;28;20401;-70
2023/02/10 05:24:10;;;;;;;;;;;;;;;-144.99;100.00;52452.16;5026183;28;20032;-70
2023/02/10 05:26:36;;;;;;;;;;;;;;;-144.99;100.00;52431.78;5027987;28;20291;-66
2023/02/10 05:29:03;;;;;;;;;;;;;;;-144.99;100.00;52448.09;5035273;28;19952;-72
2023/02/10 05:31:29;;;;;;;;;;;;;;;-144.99;100.00;52444.03;5028710;28;19991;-72
2023/02/10 05:33:56;;;;;;;;;;;;;;;-144.99;100.00;52431.78;5025672;28;19955;-71
2023/02/10 05:36:24;;;;;;;;;;;;;;;-144.99;100.00;52452.16;5035047;28;19968;-72
2023/02/10 05:41:31;;;;;;;;;;;;;;;-144.99;100.00;52452.16;5018452;28;20306;-72
2023/02/10 05:43:57;;;;;;;;;;;;;;;-144.99;100.00;52444.03;5029777;28;19967;-73
2023/02/10 05:46:24;;;;;;;;;;;;;;;-144.99;100.00;52464.41;5028191;28;19989;-72
2023/02/10 05:48:50;;;;;;;;;;;;;;;-144.99;100.00;52446.06;5029188;28;19972;-72
2023/02/10 05:51:17;;;;;;;;;;;;;;;-144.99;100.00;52456.25;5034386;28;19929;-71
2023/02/10 05:53:45;;;;;;;;;;;;;;;-144.99;100.00;52464.41;5025089;28;20349;-72
2023/02/10 05:56:11;;;;;;;;;;;;;;;-144.99;100.00;52439.94;5036104;28;19925;-72
2023/02/10 05:58:38;;;;;;;;;;;;;;;-144.99;100.00;52460.31;5027179;28;19971;-69
2023/02/10 06:01:07;;;;;;;;;;;;;;;-144.99;100.00;52448.09;5022966;28;20385;-67
2023/02/10 06:03:33;;;;;;;;;;;;;;;-144.99;100.00;52452.16;5025091;28;19941;-75
2023/02/10 06:06:00;;;;;;;;;;;;;;;-144.99;100.00;52425.66;5026465;28;19929;-74
2023/02/10 06:08:26;;;;;;;;;;;;;;;-144.99;100.00;52448.09;5036525;28;20353;-74
2023/02/10 06:10:54;;;;;;;;;;;;;;;-144.99;100.00;52456.25;5025543;28;20106;-74
2023/02/10 06:13:21;;;;;;;;;;;;;;;-144.99;100.00;52435.88;5033667;28;19945;-74
2023/02/10 06:15:47;;;;;;;;;;;;;;;-144.99;100.00;52441.97;5028008;28;19988;-75
2023/02/10 06:18:14;;;;;;;;;;;;;;;-144.99;100.00;52391.03;5027832;28;19977;-73
2023/02/10 06:20:40;;;;;;;;;;;;;;;-144.99;100.00;52450.13;4327779;28;10000715;-73
2023/02/10 06:23:07;;;;;;;;;;;;;;;-144.99;100.00;52486.81;5010581;28;20071;-73
2023/02/10 06:25:35;;;;;;;;;;;;;;;-144.99;100.00;52452.16;5017312;28;20037;-73
2023/02/10 06:28:03;;;;;;;;;;;;;;;-144.99;100.00;52419.56;5027301;28;20403;-73
2023/02/10 06:30:30;;;;;;;;;;;;;;;-144.99;100.00;52421.59;5027278;28;20015;-73
2023/02/10 06:32:57;;;;;;;;;;;;;;;-144.99;100.00;52497.00;5034012;28;20040;-73
2023/02/10 06:35:23;;;;;;;;;;;;;;;-144.99;100.00;52425.66;5012214;28;20037;-73
2023/02/10 06:37:50;;;;;;;;;;;;;;;-144.99;100.00;52446.06;5030753;28;19970;-73
2023/02/10 06:40:16;;;;;;;;;;;;;;;-144.99;100.00;52484.78;5037058;28;19933;-73
2023/02/10 06:42:43;;;;;;;;;;;;;;;-144.99;100.00;52486.81;5029837;28;19957;-74
2023/02/10 06:45:11;;;;;;;;;;;;;;;-144.99;100.00;52464.41;5025215;28;19997;-73
2023/02/10 06:47:38;;;;;;;;;;;;;;;-144.99;100.00;52407.31;5018919;28;20340;-74
2023/02/10 06:50:05;;;;;;;;;;;;;;;-144.99;100.00;52452.16;5025508;28;19957;-73
2023/02/10 06:52:31;;;;;;;;;;;;;;;-144.99;100.00;52448.09;5027207;28;19952;-73
2023/02/10 06:54:58;;;;;;;;;;;;;;;-144.99;100.00;52466.44;5039717;28;20054;-73
2023/02/10 06:57:24;;;;;;;;;;;;;;;-144.99;100.00;52439.94;5027100;28;20046;-73
2023/02/10 06:59:52;;;;;;;;;;;;;;;-144.99;100.00;52419.56;5037753;28;20396;-73
2023/02/10 07:02:20;;;;;;;;;;;;;;;-144.99;100.00;52501.09;5030045;28;20059;-73
2023/02/10 07:04:47;;;;;;;;;;;;;;;-144.99;100.00;52454.22;5037537;28;19955;-73
2023/02/10 07:07:13;;;;;;;;;;;;;;;-144.99;100.00;52472.56;5031942;28;19941;-73
2023/02/10 07:09:40;;;;;;;;;;;;;;;-144.99;100.00;52439.94;5028836;28;20056;-73
2023/02/10 07:12:06;;;;;;;;;;;;;;;-144.99;100.00;52456.25;5036800;28;20281;-73
2023/02/10 07:14:33;;;;;;;;;;;;;;;-144.99;100.00;52423.63;5036670;28;20038;-73
2023/02/10 07:16:59;;;;;;;;;;;;;;;-144.99;100.00;52448.09;5038791;28;19950;-74
2023/02/10 07:19:27;;;;;;;;;;;;;;;-144.99;100.00;52439.94;5026508;28;19984;-73
2023/02/10 07:21:54;;;;;;;;;;;;;;;-144.99;100.00;52423.63;5028843;28;19961;-73
2023/02/10 07:24:20;;;;;;;;;;;;;;;-144.99;100.00;52472.56;5036112;28;19967;-73
2023/02/10 07:26:47;;;;;;;;;;;;;;;-144.99;100.00;52476.63;5024132;28;20376;-73
2023/02/10 07:29:15;;;;;;;;;;;;;;;-144.99;100.00;52439.94;5028610;28;19997;-73
2023/02/10 07:31:42;;;;;;;;;;;;;;;-144.99;100.00;52407.31;5023162;28;20343;-73
2023/02/10 07:34:08;;;;;;;;;;;;;;;-144.99;100.00;52435.88;5032005;28;20006;-73
2023/02/10 07:36:36;;;;;;;;;;;;;;;-144.99;100.00;52472.56;5035437;28;19946;-73
2023/02/10 07:39:03;;;;;;;;;;;;;;;-144.99;100.00;52435.88;5031825;28;19996;-73
2023/02/10 07:41:29;;;;;;;;;;;;;;;-144.99;100.00;52446.06;5040426;28;20003;-73
2023/02/10 07:43:56;;;;;;;;;;;;;;;-144.99;100.00;52431.78;5037266;28;19949;-73
2023/02/10 07:46:22;;;;;;;;;;;;;;;-144.99;100.00;52468.47;5037244;28;20037;-73
2023/02/10 07:48:49;;;;;;;;;;;;;;;-144.99;100.00;52454.22;5030925;28;19986;-73
2023/02/10 07:51:15;;;;;;;;;;;;;;;-144.99;100.00;52460.31;5040572;28;20013;-73
2023/02/10 07:53:43;;;;;;;;;;;;;;;-144.99;100.00;52476.63;5039990;28;20321;-73
2023/02/10 07:56:10;;;;;;;;;;;;;;;-144.99;100.00;52417.53;5036686;28;19937;-72
2023/02/10 07:58:37;;;;;;;;;;;;;;;-144.99;100.00;52419.56;5032493;28;20354;-73
2023/02/10 08:01:06;;;;;;;;;;;;;;;-144.99;100.00;52488.84;5030300;28;20056;-73
2023/02/10 08:03:32;;;;;;;;;;;;;;;-144.99;100.00;52415.47;5028194;28;19928;-73
2023/02/10 08:05:59;;;;;;;;;;;;;;;-144.99;100.00;52437.91;5028089;28;19974;-73
2023/02/10 08:08:25;;;;;;;;;;;;;;;-144.99;100.00;52460.31;5033535;28;20290;-73
2023/02/10 08:10:54;;;;;;;;;;;;;;;-144.99;100.00;52437.91;5036049;28;20008;-72
2023/02/10 08:13:21;;;;;;;;;;;;;;;-144.99;100.00;52460.31;5039831;28;19991;-72
2023/02/10 08:15:47;;;;;;;;;;;;;;;-144.99;100.00;52472.56;5037637;28;19929;-72
2023/02/10 08:18:14;;;;;;;;;;;;;;;-144.99;100.00;52448.09;5030042;28;19945;-72
2023/02/10 08:20:41;;;;;;;;;;;;;;;-144.99;100.00;52450.13;5035911;28;20088;-72
2023/02/10 08:23:10;;;;;;;;;;;;;;;-144.99;100.00;52460.31;5030206;28;19971;-72
2023/02/10 08:25:37;;;;;;;;;;;;;;;-144.99;100.00;52431.78;5032911;28;19975;-73
2023/02/10 08:28:05;;;;;;;;;;;;;;;-144.99;100.00;52423.63;5026501;28;20009;-72
2023/02/10 08:30:31;;;;;;;;;;;;;;;-144.99;100.00;52386.94;5027885;28;20380;-72
2023/02/10 08:32:58;;;;;;;;;;;;;;;-144.99;100.00;52431.78;5031368;28;19943;-73
2023/02/10 08:35:25;;;;;;;;;;;;;;;-144.99;100.00;52476.63;5020013;28;19925;-73
2023/02/10 08:37:51;;;;;;;;;;;;;;;-144.99;100.00;52431.78;5022442;28;20064;-72
2023/02/10 08:40:18;;;;;;;;;;;;;;;-144.99;100.00;52427.72;5031237;28;19967;-73
2023/02/10 08:42:45;;;;;;;;;;;;;;;-144.99;100.00;52423.63;5028871;28;19925;-72
2023/02/10 08:45:13;;;;;;;;;;;;;;;-144.99;100.00;52411.41;5028584;28;19933;-72
2023/02/10 08:47:39;;;;;;;;;;;;;;;-144.99;100.00;52431.78;5033833;28;19986;-72
2023/02/10 08:50:06;;;;;;;;;;;;;;;-144.99;100.00;52480.72;5007625;28;19963;-71
2023/02/10 08:52:33;;;;;;;;;;;;;;;-144.99;100.00;52435.88;5026943;28;20025;-71
2023/02/10 08:55:01;;;;;;;;;;;;;;;-144.99;100.00;52464.41;5036281;28;19992;-72
2023/02/10 08:57:28;;;;;;;;;;;;;;;-144.99;100.00;52444.03;5034951;28;19990;-71
2023/02/10 08:59:54;;;;;;;;;;;;;;;-144.99;100.00;52460.31;5052652;28;19999;-71
2023/02/10 09:02:22;;;;;;;;;;;;;;;-144.99;100.00;52439.94;5054622;28;19963;-73
2023/02/10 09:04:48;;;;;;;;;;;;;;;-144.99;100.00;52407.31;5048991;28;19966;-75
2023/02/10 09:07:16;;;;;;;;;;;;;;;-144.99;100.00;52403.25;5058599;28;19975;-75
2023/02/10 09:09:43;;;;;;;;;;;;;;;-144.99;100.00;52399.19;5034300;28;19957;-74
2023/02/10 09:12:11;;;;;;;;;;;;;;;-144.99;100.00;52452.16;5056226;28;19960;-74
2023/02/10 09:14:38;;;;;;;;;;;;;;;-144.99;100.00;52427.72;5047239;28;19941;-73
2023/02/10 09:17:05;;;;;;;;;;;;;;;-144.99;100.00;52421.59;5044143;28;19964;-73
2023/02/10 09:19:33;;;;;;;;;;;;;;;-144.99;100.00;52431.78;5041296;28;19947;-74
2023/02/10 09:21:59;;;;;;;;;;;;;;;-144.99;100.00;52439.94;5021138;28;19939;-73
2023/02/10 09:24:26;;;;;;;;;;;;;;;-144.99;100.00;52425.66;5045335;28;19941;-74
2023/02/10 09:26:52;;;;;;;;;;;;;;;-144.99;100.00;52407.31;5039568;28;19982;-73
2023/02/10 09:29:19;;;;;;;;;;;;;;;-144.99;99.84;52441.97;5036796;28;20035;-73
2023/02/10 09:31:46;;;;;;;;;;;;;;;-144.99;100.00;52419.56;5040414;28;19925;-73
2023/02/10 09:34:12;;;;;;;;;;;;;;;-144.99;100.00;52450.13;5047567;28;20106;-74
2023/02/10 09:36:40;;;;;;;;;;;;;;;-144.99;100.00;52411.41;5042672;28;19957;-73
2023/02/10 09:39:07;;;;;;;;;;;;;;;-144.99;99.76;52393.06;5023710;28;20014;-74
2023/02/10 09:41:41;;;;;;;;;;;;;;;-144.99;96.78;52435.88;5025162;28;19965;-74
2023/02/10 09:44:11;;;;;;;;;;;;;;;-144.99;95.64;52468.47;5033728;28;20511;-73
2023/02/10 09:46:47;;;;;;;;;;;;;;;-144.99;94.71;52448.09;5038047;28;20443;-73
2023/02/10 09:49:20;;;;;;;;;;;;;;;-144.99;95.56;52462.34;5023376;28;19960;-73
2023/02/10 09:51:53;;;;;;;;;;;;;;;-144.99;95.73;52435.88;5034914;28;19960;-74
2023/02/10 09:54:20;;;;;;;;;;;;;;;-144.99;95.99;52456.25;5042202;28;19947;-73
2023/02/10 09:56:47;;;;;;;;;;;;;;;-144.99;97.46;52419.56;5027903;28;20049;-72
2023/02/10 09:59:16;;;;;;;;;;;;;;;-144.99;95.54;52425.66;5028028;28;19975;-72
2023/02/10 10:01:45;;;;;;;;;;;;;;;-144.99;96.96;52427.72;5033693;28;19941;-75
2023/02/10 10:04:15;;;;;;;;;;;;;;;-144.99;95.82;52439.94;5028635;28;19967;-74
2023/02/10 10:06:43;;;;;;;;;;;;;;;-144.99;95.58;52431.78;5030557;28;19940;-72
2023/02/10 10:09:20;;;;;;;;;;;;;;;-144.99;94.68;52435.88;5043753;22;20547;-69
2023/02/10 10:11:48;;;;;;;;;;;;;;;-144.99;94.29;52403.25;5026545;28;20281;-69
2023/02/10 10:14:18;;;;;;;;;;;;;;;-144.99;94.55;52439.94;5026439;28;20019;-69
2023/02/10 10:16:55;;;;;;;;;;;;;;;-144.99;95.33;52429.75;5038285;28;19987;-69
2023/02/10 10:19:29;;;;;;;;;;;;;;;-144.99;94.58;52472.56;5024096;28;19980;-69
2023/02/10 10:22:01;;;;;;;;;;;;;;;-144.99;92.63;52415.47;5018652;28;20466;-70
2023/02/10 10:24:43;;;;;;;;;;;;;;;-144.99;92.72;52423.63;5023817;28;19929;-69
2023/02/10 10:27:16;;;;;;;;;;;;;;;-144.99;92.50;52444.03;5022392;28;19929;-69
2023/02/10 10:29:47;;;;;;;;;;;;;;;-144.99;92.79;52480.72;5034180;28;20205;-68
2023/02/10 10:32:15;;;;;;;;;;;;;;;-144.99;95.43;52407.31;5025971;28;20037;-68
2023/02/10 10:34:43;;;;;;;;;;;;;;;-144.99;95.49;52452.16;5023121;28;19963;-70
2023/02/10 10:37:13;;;;;;;;;;;;;;;-144.99;94.03;52415.47;5030203;28;20076;-71
2023/02/10 10:39:45;;;;;;;;;;;;;;;-144.99;92.73;52441.97;5030055;28;20346;-70
2023/02/10 10:42:17;;;;;;;;;;;;;;;-144.99;93.04;52435.88;5024481;28;19990;-70
2023/02/10 10:44:44;;;;;;;;;;;;;;;-144.99;90.66;52419.56;5027791;28;20014;-70
2023/02/10 10:47:14;;;;;;;;;;;;;;;-144.99;89.76;52403.25;5025368;28;20344;-71
2023/02/10 10:49:41;;;;;;;;;;;;;;;-144.99;90.24;52417.53;5006985;28;19955;-70
2023/02/10 10:52:20;;;;;;;;;;;;;;;-144.99;89.56;52427.72;5017411;28;19967;-70
2023/02/10 10:54:48;;;;;;;;;;;;;;;-144.99;89.91;52452.16;5021938;28;20050;-69
2023/02/10 10:57:18;;;;;;;;;;;;;;;-144.99;90.47;52407.31;5024902;28;19966;-70
2023/02/10 10:59:46;;;;;;;;;;;;;;;-144.99;91.98;52444.03;5028055;28;20149;-70
2023/02/10 11:02:14;;;;;;;;;;;;;;;-144.99;91.09;52399.19;5025996;28;20054;-70
2023/02/10 11:04:42;;;;;;;;;;;;;;;-144.99;91.09;52411.41;5021516;28;19989;-70
2023/02/10 11:07:10;;;;;;;;;;;;;;;-144.99;91.39;52407.31;5028485;28;20158;-70
2023/02/10 11:09:41;;;;;;;;;;;;;;;-144.99;91.14;52444.03;5018672;28;19992;-70
2023/02/10 11:12:22;;;;;;;;;;;;;;;-144.99;90.42;52435.88;5020159;28;20545;-71
2023/02/10 11:14:53;;;;;;;;;;;;;;;-144.99;89.00;52409.38;5019083;28;19941;-72
2023/02/10 11:17:21;;;;;;;;;;;;;;;-144.99;88.67;52460.31;5019959;28;20401;-70
2023/02/10 11:19:54;;;;;;;;;;;;;;;-144.99;89.57;52407.31;5029447;28;19929;-70
2023/02/10 11:22:21;;;;;;;;;;;;;;;-144.99;90.37;52419.56;5012411;28;20091;-69
2023/02/10 11:24:50;;;;;;;;;;;;;;;-144.99;88.25;52378.78;5013841;28;20046;-70
2023/02/10 11:27:18;;;;;;;;;;;;;;;-144.99;88.89;52427.72;4676113;28;10000585;-71
2023/02/10 11:29:46;;;;;;;;;;;;;;;-144.99;89.58;52401.22;5023724;28;20001;-69
2023/02/10 11:32:18;;;;;;;;;;;;;;;-144.99;89.49;52378.78;5029475;28;19945;-69
2023/02/10 11:34:45;;;;;;;;;;;;;;;-144.99;88.61;52419.56;5023102;28;19942;-69
2023/02/10 11:37:13;;;;;;;;;;;;;;;-144.99;88.25;52386.94;5030421;28;19984;-69
2023/02/10 11:39:42;;;;;;;;;;;;;;;-144.99;86.25;52386.94;5020135;28;19957;-70
2023/02/10 11:42:09;;;;;;;;;;;;;;;-144.99;86.21;52407.31;5031273;28;19945;-68
2023/02/10 11:44:39;;;;;;;;;;;;;;;-144.99;85.48;52366.56;5035261;28;20349;-70
2023/02/10 11:47:06;;;;;;;;;;;;;;;-144.99;84.80;52378.78;5026360;28;19949;-70
2023/02/10 11:49:36;;;;;;;;;;;;;;;-144.99;83.07;52382.88;5020930;28;20035;-70
2023/02/10 11:52:04;;;;;;;;;;;;;;;-144.99;80.87;52362.50;5025592;28;19967;-69
2023/02/10 11:54:31;;;;;;;;;;;;;;;-144.99;79.63;52331.91;5024010;28;19940;-69
2023/02/10 11:59:55;;;;;;;;;;;;;;;-144.99;74.01;52358.41;5018412;28;19967;-70
2023/02/10 12:02:26;;;;;;;;;;;;;;;-144.99;72.61;52329.88;5027549;28;19978;-70
2023/02/10 12:05:01;;;;;;;;;;;;;;;-144.99;72.83;52354.34;5022666;28;20051;-70
2023/02/10 12:07:36;;;;;;;;;;;;;;;-144.99;71.46;52317.66;5022111;28;19997;-70
2023/02/10 12:10:09;;;;;;;;;;;;;;;-144.99;70.95;52358.41;5023859;28;19965;-70
2023/02/10 12:12:43;;;;;;;;;;;;;;;-144.99;71.53;52342.09;5025851;28;19990;-70
2023/02/10 12:15:16;;;;;;;;;;;;;;;-144.99;70.72;52333.94;5019178;28;19944;-70
2023/02/10 12:17:53;;;;;;;;;;;;;;;-144.99;69.80;52325.81;5019453;28;19947;-69
2023/02/10 12:20:26;;;;;;;;;;;;;;;-144.99;68.94;52354.34;5032820;28;20017;-69
2023/02/10 12:23:14;;;;;;;;;;;;;;;-144.99;69.31;52336.00;5042552;28;19939;-68
2023/02/10 12:25:45;;;;;;;;;;;;;;;-144.99;67.88;52321.72;5014522;28;20428;-70
2023/02/10 12:28:18;;;;;;;;;;;;;;;-144.99;67.90;52366.56;5022441;28;19937;-69